Hickory Valley, Louisiana
Current Conditions -  °F | °C
As of 7:15 PM on Sunday 21 Dec 2014 (Local Time) from KRSN Reporting Station
Clear Clear  
Wind Chill: 50°   Ceiling: Unl
Heat Index: 50°   Visibility: 10mi
Dew Point: 47°   Wind: 5mph
Humidity: 87%   Direction: 130°SE
Pressure: 29.97"   Gusts: NA
Location:  32.0547°N, 92.4144°W
Report Text: KRSN 220115Z AUTO 13004KT 10SM CLR 10/08 A2997 RMK AO2 T01010081
Loading
Personal Weather Stations






























Interactive Weather Map New forecast layout! Learn more

10-Day Weather Forecast

Advertisements
Track Severe Weather on mobile